map of TNN home
TNN - Airport
Location
City:  Tainan, Taiwan
ICAO:RCNN
IATA:TNN

Details
Type:Airport (Aerodrome, Airfield)
Use:Military
Latitude:2257'01"N (22.950361)
Longitude:12012'21"E (120.205778)
Datum:WGS 1984
Elevation:63 ft (19 m)
Variation:3.94W (WMM2015 magnetic declination)
-0.09 annual change
Runways:2
Longest:10007 × 148 ft (3050 × 45 m), paved

Time
Time Zone:UTC+8
Local Time:

Weather
METAR:RCNN 210900Z 01014KT 9000 FEW012 SCT100 18/13 Q1017 NOSIG RMK A3005
TAF:RCNN 210500Z 2106/2206 36012KT 6000 FEW012 BKN060 TX22/2106Z TN14/2119Z
BECMG 2107/2110 8000
BECMG 2120/2123 5000 BR
BECMG 2201/2204 8000 FEW012 SCT060

Related Locations
Nearby:
Farthest:FLM: 12387 mi / 19936 km
Filadelfia, 19, PY

Find:

   beyond  
but within

Other Information
Maps:
NOTAMs:
Links:
Sources:

  
  • flag of Taiwan
  

Sectional Chart

Flight Planning
at skyvector.com

Satellite Image

Google Maps Satellite view

 

Copyright © 2004-2019 Karl L. Swartz. All rights reserved.
The Great Circle Mapper name and logo are trademarks of the Great Circle Mapper.
All other trademarks mentioned herein belong to their respective owners.
Please see credits for attibutions and further copyright information.

  Follow gcmap on Facebook Follow gcmap on Twitter Follow gcmap on Google+ GCmap on LinkedIn

hCard Microformat

Geo Microformat